Flight Track Log - Related Links

Times and Time Zones

All times are in EDT time to prevent confusion due to time zone crossing. See the TAM3273 flight status page for this flight to view local times or setup timezone preferences in your user account.

Time Position Orientation Groundspeed Altitude Reporting Facility
EDT Latitude Longitude Course Direction KTS MPH feet Rate Location/Type
Sun 07:50:00 AM -20.0517 -47.8483 163° South  Level Estimated
Sun 07:51:00 AM -20.1204 -47.8259 163° South  Level Estimated
Sun 07:52:00 AM -20.1891 -47.8035 163° South  Level Estimated
Sun 07:53:00 AM -20.2579 -47.7811 163° South  Level Estimated
Sun 07:54:00 AM -20.3266 -47.7587 163° South  Level Estimated
Sun 07:55:00 AM -20.3953 -47.7362 163° South  Level Estimated
Sun 07:56:00 AM -20.4640 -47.7138 163° South  Level Estimated
Sun 07:57:00 AM -20.5327 -47.6913 163° South  Level Estimated
Sun 07:58:00 AM -20.6015 -47.6688 163° South  Level Estimated
Sun 07:59:00 AM -20.6702 -47.6462 163° South  Level Estimated
Sun 08:00:00 AM -20.7389 -47.6237 163° South  Level Estimated
Sun 08:01:00 AM -20.8076 -47.6011 163° South  Level Estimated
Sun 08:02:00 AM -20.8763 -47.5785 163° South  Level Estimated
Sun 08:03:00 AM -20.9450 -47.5559 163° South  Level Estimated
Sun 08:04:00 AM -21.0137 -47.5333 163° South  Level Estimated
Sun 08:05:00 AM -21.0824 -47.5106 163° South  Level Estimated
Sun 08:06:00 AM -21.1511 -47.4880 163° South  Level Estimated
Sun 08:07:00 AM -21.2197 -47.4653 163° South  Level Estimated
Sun 08:08:00 AM -21.2884 -47.4426 163° South  Level Estimated
Sun 08:09:00 AM -21.3571 -47.4198 163° South  Level Estimated
Sun 08:10:00 AM -21.4258 -47.3971 163° South  Level Estimated
Sun 08:11:00 AM -21.4944 -47.3743 163° South  Level Estimated
Sun 08:12:00 AM -21.5631 -47.3515 163° South  Level Estimated
Sun 08:13:00 AM -21.6318 -47.3287 163° South  Level Estimated
Sun 08:14:00 AM -21.7004 -47.3059 163° South  Level Estimated
Sun 08:15:00 AM -21.7691 -47.2830 163° South  Level Estimated
Sun 08:16:00 AM -21.8378 -47.2601 163° South  Level Estimated
Sun 08:17:00 AM -21.9064 -47.2372 163° South  Level Estimated
Sun 08:18:00 AM -21.9751 -47.2143 163° South  Level Estimated
Sun 08:19:00 AM -22.0437 -47.1913 163° South  Level Estimated
Sun 08:20:00 AM -22.1124 -47.1684 163° South  Level Estimated
Sun 08:21:00 AM -22.1810 -47.1454 163° South  Level Estimated
Sun 08:22:00 AM -22.2496 -47.1223 163° South  Level Estimated
Sun 08:23:00 AM -22.3183 -47.0993 163° South  Level Estimated
Sun 08:24:00 AM -22.3869 -47.0762 163° South  Level Estimated
Sun 08:25:00 AM -22.4555 -47.0531 163° South  Level Estimated
Sun 08:26:00 AM -22.5241 -47.0300 163° South  Level Estimated
Sun 08:27:00 AM -22.5928 -47.0069 163° South  Level Estimated
Sun 08:28:00 AM -22.6614 -46.9837 163° South  Level Estimated
Sun 08:29:00 AM -22.7300 -46.9606 163° South  Level Estimated
Sun 08:30:00 AM -22.7986 -46.9374 163° South  Level Estimated
Sun 08:31:00 AM -22.8672 -46.9141 163° South  Level Estimated
Sun 08:32:00 AM -22.9358 -46.8909 163° South  Level Estimated
Sun 08:33:00 AM -23.0044 -46.8676 163° South  Level Estimated
Sun 08:34:00 AM -23.0730 -46.8443 163° South  Level Estimated
Sun 08:35:00 AM -23.1416 -46.8210 163° South  Level Estimated
Sun 08:36:00 AM -23.2102 -46.7977 163° South  Level Estimated
Sun 08:37:00 AM -23.2788 -46.7743 163° South  Level Estimated
Sun 08:38:00 AM -23.3474 -46.7509 163° South  Level Estimated
Sun 08:39:00 AM -23.4159 -46.7275 163° South  Level Estimated
Sun 08:40:00 AM -23.4845 -46.7040 163° South  Level Estimated
Sun 08:41:00 AM -23.5531 -46.6806 163° South  Level Estimated
Sun 08:42:00 AM -23.6217 -46.6571 163° South  Level Estimated
Sun 08:43:00 AM -23.6267 -46.6554 163° South  Level Estimated
Sun 08:44:00 AM -23.6267 -46.6554 114° Southeast  Level Estimated
Sun 08:45:00 AM -23.6267 -46.6554 114° Southeast  Level Estimated
Sun 08:46:00 AM -23.6267 -46.6554 114° Southeast  Level Estimated
Sun 08:47:00 AM -23.6267 -46.6554 114° Southeast  Level Estimated
Sun 08:48:00 AM -23.6267 -46.6554 114° Southeast  Level Estimated
Sun 08:49:00 AM -23.6267 -46.6554 114° Southeast  Level Estimated
Sun 08:50:00 AM -23.6267 -46.6554 114° Southeast  Level Estimated
Sun 08:51:00 AM -23.6267 -46.6554 114° Southeast  Level Estimated
Sun 08:52:00 AM -23.6267 -46.6554 114° Southeast  Level Estimated
Sun 08:53:00 AM -23.6267 -46.6554 114° Southeast  Level Estimated
Sun 08:54:00 AM -23.6267 -46.6554 114° Southeast  Level Estimated
Sun 08:55:00 AM -23.6267 -46.6554 114° Southeast  Level Estimated
Sun 08:56:00 AM -23.6267 -46.6554 114° Southeast  Level Estimated
Sun 08:57:00 AM -23.6267 -46.6554 114° Southeast  Level Estimated
Sun 08:58:00 AM -23.6267 -46.6554 114° Southeast  Level Estimated

Login

Don't have an account? Register now (free) for customized features, flight alerts, and more!